KTCL/TCL METAR and TAF weather

Enter ICAO airport designator
Station Type Date Time Source
KTCL METAR 2018/12/17 01:53 UTC NOAA

KTCL 170153Z AUTO 00000KT 7SM CLR 08/07 A3026 RMK AO2 SLP247 T00830067


Station Type Date Time Source
KTCL Decoded METAR 2018/12/17 01:53 UTC NOAA

TUSCALOOSA REGIONAL AIRPORT, AL, United States (KTCL) 33-13N 087-37W
Dec 16, 2018 - 08:53 PM EST / 2018.12.17 0153 UTC
Wind: Calm:0
Visibility: 7 mile(s):0
Sky conditions: clear
Temperature: 46.9 F (8.3 C)
Dew Point: 44.1 F (6.7 C)
Relative Humidity: 89%
Pressure (altimeter): 30.26 in. Hg (1024 hPa)
ob: KTCL 170153Z AUTO 00000KT 7SM CLR 08/07 A3026 RMK AO2 SLP247 T00830067
cycle: 2

Station Type Date Time Source
KTCL TAF 2018/12/16 21:12 UTC NOAA

TAF
AMD KTCL 162109Z 1621/1718 32006KT P6SM FEW030
FM162300 00000KT P6SM FEW030
FM170900 33001KT P6SM BKN025


Example: see airport list